Time;durP1;ratioP1;P1;durP2;ratioP2;P2;SDS_P1;SDS_P2;PMS_P1;PMS_P2;Temp;Humidity;BMP_temperature;BMP_pressure;BME280_temperature;BME280_humidity;BME280_pressure;Samples;Min_cycle;Max_cycle;Signal;HPM_P1;HPM_P2
2023/07/14 00:00:50;;;;;;;;;;;;;;;;;;2197056;59;1981;-23
2023/07/14 00:03:20;;;;;;;;;;;;;;;;;;2195973;59;2166;-23
2023/07/14 00:05:51;;;;;;;;;;;;;;;;;;2196736;59;1978;-23
2023/07/14 00:08:21;;;;;;;;;;;;;;;;;;2197059;67;2240;-23
2023/07/14 00:10:51;;;;;;;;;;;;;;;;;;2196835;67;1953;-23
2023/07/14 00:13:21;;;;;;;;;;;;;;;;;;2196951;59;2645;-23
2023/07/14 00:15:52;;;;;;;;;;;;;;;;;;2193607;67;1839;-22
2023/07/14 00:18:25;;;;;;;;;;;;;;;;;;2197139;67;2270;-23
2023/07/14 00:20:56;;;;;;;;;;;;;;;;;;2197325;67;2459;-23
2023/07/14 00:23:26;;;;;;;;;;;;;;;;;;2195616;67;2124;-23
2023/07/14 00:25:56;;;;;;;;;;;;;;;;;;2197446;59;2080;-23
2023/07/14 00:28:26;;;;;;;;;;;;;;;;;;2198015;67;1845;-23
2023/07/14 00:30:57;;;;;;;;;;;;;;;;;;2197387;67;1795;-23
2023/07/14 00:33:29;;;;;;;;;;;;;;;;;;2198122;67;1935;-23
2023/07/14 00:36:00;;;;;;;;;;;;;;;;;;2197561;67;2103;-23
2023/07/14 00:38:30;;;;;;;;;;;;;;;;;;2195026;67;2118;-23
2023/07/14 00:41:01;;;;;;;;;;;;;;;;;;2199348;67;2022;-23
2023/07/14 00:43:31;;;;;;;;;;;;;;;;;;2198003;67;2628;-23
2023/07/14 00:46:03;;;;;;;;;;;;;;;;;;2193806;67;2569;-22
2023/07/14 00:48:33;;;;;;;;;;;;;;;;;;2198113;67;2272;-23
2023/07/14 00:51:06;;;;;;;;;;;;;;;;;;2197627;59;2188;-23
2023/07/14 00:53:38;;;;;;;;;;;;;;;;;;2196999;59;2104;-22
2023/07/14 00:56:08;;;;;;;;;;;;;;;;;;2197676;67;1912;-23
2023/07/14 00:58:39;;;;;;;;;;;;;;;;;;2197848;67;2640;-22
2023/07/14 01:01:10;;;;;;;;;;;;;;;;;;2197350;59;2034;-23
2023/07/14 01:03:41;;;;;;;;;;;;;;;;;;2198164;59;1892;-23
2023/07/14 01:06:12;;;;;;;;;;;;;;;;;;2196898;59;2249;-23
2023/07/14 01:09:03;;;;;;;;;;;;;;;;;;2197790;67;1869;-23
2023/07/14 01:11:34;;;;;;;;;;;;;;;;;;2195404;59;2091;-23
2023/07/14 01:14:07;;;;;;;;;;;;;;;;;;2199161;67;2042;-23
2023/07/14 01:16:41;;;;;;;;;;;;;;;;;;2198474;59;2503;-23
2023/07/14 01:19:20;;;;;;;;;;;;;;;;;;2197551;67;2136;-23
2023/07/14 01:21:53;;;;;;;;;;;;;;;;;;2194741;67;3464;-23
2023/07/14 01:24:28;;;;;;;;;;;;;;;;;;2197753;67;2978;-23
2023/07/14 01:27:04;;;;;;;;;;;;;;;;;;2196366;59;2118;-22
2023/07/14 01:29:36;;;;;;;;;;;;;;;;;;2197564;59;1939;-23
2023/07/14 01:32:17;;;;;;;;;;;;;;;;;;2196183;59;2219;-23
2023/07/14 01:34:47;;;;;;;;;;;;;;;;;;2193517;67;2198;-23
2023/07/14 01:37:19;;;;;;;;;;;;;;;;;;2192915;67;2253;-23
2023/07/14 01:39:50;;;;;;;;;;;;;;;;;;2197639;59;2627;-23
2023/07/14 01:42:21;;;;;;;;;;;;;;;;;;2193434;67;2765;-23
2023/07/14 01:44:51;;;;;;;;;;;;;;;;;;2194464;59;2308;-23
2023/07/14 01:47:22;;;;;;;;;;;;;;;;;;2196973;59;2103;-23
2023/07/14 01:49:52;;;;;;;;;;;;;;;;;;2197344;59;2315;-22
2023/07/14 01:52:27;;;;;;;;;;;;;;;;;;2197325;59;2018;-23
2023/07/14 01:55:05;;;;;;;;;;;;;;;;;;2194353;59;2139;-23
2023/07/14 01:57:38;;;;;;;;;;;;;;;;;;2197755;67;2673;-22
2023/07/14 02:00:12;;;;;;;;;;;;;;;;;;2195970;59;2175;-23
2023/07/14 02:02:44;;;;;;;;;;;;;;;;;;2198063;67;2120;-23
2023/07/14 02:05:17;;;;;;;;;;;;;;;;;;2197895;59;1974;-23
2023/07/14 02:07:47;;;;;;;;;;;;;;;;;;2197656;67;2535;-23
2023/07/14 02:10:19;;;;;;;;;;;;;;;;;;2197450;67;2064;-23
2023/07/14 02:12:49;;;;;;;;;;;;;;;;;;2197495;59;1960;-22
2023/07/14 02:15:23;;;;;;;;;;;;;;;;;;2196579;67;2751;-22
2023/07/14 02:17:54;;;;;;;;;;;;;;;;;;2197431;67;2495;-23
2023/07/14 02:20:30;;;;;;;;;;;;;;;;;;2193982;67;2649;-23
2023/07/14 02:23:01;;;;;;;;;;;;;;;;;;2196939;67;2079;-23
2023/07/14 02:25:34;;;;;;;;;;;;;;;;;;2193988;59;2426;-23
2023/07/14 02:28:04;;;;;;;;;;;;;;;;;;2196991;59;2431;-22
2023/07/14 02:30:35;;;;;;;;;;;;;;;;;;2193343;59;2032;-23
2023/07/14 02:33:10;;;;;;;;;;;;;;;;;;2196984;67;2112;-23
2023/07/14 02:35:43;;;;;;;;;;;;;;;;;;2197565;67;2886;-23
2023/07/14 02:38:15;;;;;;;;;;;;;;;;;;2196551;67;2190;-22
2023/07/14 02:40:49;;;;;;;;;;;;;;;;;;2197315;67;2647;-23
2023/07/14 02:43:21;;;;;;;;;;;;;;;;;;2196776;67;2145;-23
2023/07/14 02:46:00;;;;;;;;;;;;;;;;;;2196215;67;1833;-23
2023/07/14 02:48:34;;;;;;;;;;;;;;;;;;2199028;67;2656;-23
2023/07/14 02:51:04;;;;;;;;;;;;;;;;;;2194599;59;2056;-23
2023/07/14 02:53:34;;;;;;;;;;;;;;;;;;2195280;54;3760;-19
2023/07/14 02:56:05;;;;;;;;;;;;;;;;;;2196511;59;2409;-19
2023/07/14 02:58:36;;;;;;;;;;;;;;;;;;2198079;59;1865;-19
2023/07/14 03:01:06;;;;;;;;;;;;;;;;;;2197720;59;1977;-19
2023/07/14 03:03:37;;;;;;;;;;;;;;;;;;2200471;59;1918;-19
2023/07/14 03:06:11;;;;;;;;;;;;;;;;;;2199969;59;2184;-19
2023/07/14 03:08:41;;;;;;;;;;;;;;;;;;2201418;67;1682;-19
2023/07/14 03:11:12;;;;;;;;;;;;;;;;;;2200287;67;1371;-19
2023/07/14 03:13:43;;;;;;;;;;;;;;;;;;2194633;67;1814;-19
2023/07/14 03:16:15;;;;;;;;;;;;;;;;;;2201037;67;1310;-19
2023/07/14 03:18:45;;;;;;;;;;;;;;;;;;2197484;67;1280;-19
2023/07/14 03:21:15;;;;;;;;;;;;;;;;;;2200490;67;1919;-19
2023/07/14 03:23:46;;;;;;;;;;;;;;;;;;2200833;67;1539;-19
2023/07/14 03:26:16;;;;;;;;;;;;;;;;;;2199720;59;1473;-19
2023/07/14 03:28:46;;;;;;;;;;;;;;;;;;2201032;67;2428;-17
2023/07/14 03:31:17;;;;;;;;;;;;;;;;;;2200193;67;1803;-17
2023/07/14 03:33:47;;;;;;;;;;;;;;;;;;2200685;67;1226;-17
2023/07/14 03:36:20;;;;;;;;;;;;;;;;;;2200151;67;1695;-17
2023/07/14 03:39:18;;;;;;;;;;;;;;;;;;2200587;67;1696;-18
2023/07/14 03:41:48;;;;;;;;;;;;;;;;;;2200094;67;1937;-18
2023/07/14 03:44:19;;;;;;;;;;;;;;;;;;2200581;67;1912;-17
2023/07/14 03:46:50;;;;;;;;;;;;;;;;;;2200406;59;1337;-17
2023/07/14 03:49:20;;;;;;;;;;;;;;;;;;2200525;59;1372;-17
2023/07/14 03:51:51;;;;;;;;;;;;;;;;;;2197918;59;1598;-18
2023/07/14 03:54:21;;;;;;;;;;;;;;;;;;2200969;59;2342;-17
2023/07/14 03:56:54;;;;;;;;;;;;;;;;;;2202734;59;1331;-17
2023/07/14 03:59:25;;;;;;;;;;;;;;;;;;2203475;67;1798;-18
2023/07/14 04:01:55;;;;;;;;;;;;;;;;;;2200853;59;1987;-18
2023/07/14 04:04:26;;;;;;;;;;;;;;;;;;2201779;59;1424;-17
2023/07/14 04:06:57;;;;;;;;;;;;;;;;;;2199920;59;2041;-17
2023/07/14 04:09:27;;;;;;;;;;;;;;;;;;2198171;67;2269;-17
2023/07/14 04:11:57;;;;;;;;;;;;;;;;;;2201155;59;2005;-25
2023/07/14 04:14:27;;;;;;;;;;;;;;;;;;2201581;67;1618;-18
2023/07/14 04:16:58;;;;;;;;;;;;;;;;;;2201446;67;1297;-17
2023/07/14 04:19:31;;;;;;;;;;;;;;;;;;2200427;59;1496;-17
2023/07/14 04:22:02;;;;;;;;;;;;;;;;;;2197636;67;2001;-18
2023/07/14 04:24:32;;;;;;;;;;;;;;;;;;2201587;67;1736;-17
2023/07/14 04:27:03;;;;;;;;;;;;;;;;;;2200454;59;1562;-18
2023/07/14 04:29:33;;;;;;;;;;;;;;;;;;2201432;67;1236;-17
2023/07/14 04:32:04;;;;;;;;;;;;;;;;;;2200939;59;1290;-17
2023/07/14 04:34:36;;;;;;;;;;;;;;;;;;2202004;67;1341;-17
2023/07/14 04:37:07;;;;;;;;;;;;;;;;;;2201189;67;1361;-17
2023/07/14 04:39:37;;;;;;;;;;;;;;;;;;2201607;59;1621;-18
2023/07/14 04:42:07;;;;;;;;;;;;;;;;;;2200236;59;2382;-18
2023/07/14 04:44:38;;;;;;;;;;;;;;;;;;2200929;67;1294;-17
2023/07/14 04:47:09;;;;;;;;;;;;;;;;;;2200697;67;1152;-18
2023/07/14 04:49:39;;;;;;;;;;;;;;;;;;2201887;67;1673;-18
2023/07/14 04:52:09;;;;;;;;;;;;;;;;;;2200443;59;2021;-18
2023/07/14 04:54:40;;;;;;;;;;;;;;;;;;2201066;59;1841;-18
2023/07/14 04:57:11;;;;;;;;;;;;;;;;;;2200386;63;1577;-18
2023/07/14 04:59:42;;;;;;;;;;;;;;;;;;2197938;59;1748;-18
2023/07/14 05:02:13;;;;;;;;;;;;;;;;;;2200173;67;1994;-18
2023/07/14 05:04:43;;;;;;;;;;;;;;;;;;2201118;59;2027;-18
2023/07/14 05:07:14;;;;;;;;;;;;;;;;;;2200585;67;1635;-18
2023/07/14 05:09:44;;;;;;;;;;;;;;;;;;2197957;59;1579;-18
2023/07/14 05:12:14;;;;;;;;;;;;;;;;;;2200523;59;1969;-18
2023/07/14 05:14:44;;;;;;;;;;;;;;;;;;2200971;67;1725;-18
2023/07/14 05:17:15;;;;;;;;;;;;;;;;;;2196755;67;1286;-17
2023/07/14 05:19:45;;;;;;;;;;;;;;;;;;2200538;67;1238;-18
2023/07/14 05:22:15;;;;;;;;;;;;;;;;;;2200445;67;1920;-18
2023/07/14 05:24:46;;;;;;;;;;;;;;;;;;2201141;67;1375;-18
2023/07/14 05:27:16;;;;;;;;;;;;;;;;;;2200268;59;1732;-18
2023/07/14 05:29:46;;;;;;;;;;;;;;;;;;2201072;67;1230;-18
2023/07/14 05:32:16;;;;;;;;;;;;;;;;;;2200327;59;1591;-18
2023/07/14 05:34:48;;;;;;;;;;;;;;;;;;2201338;59;1721;-18
2023/07/14 05:37:18;;;;;;;;;;;;;;;;;;2201010;67;1185;-18
2023/07/14 05:39:49;;;;;;;;;;;;;;;;;;2201044;67;1398;-18
2023/07/14 05:42:19;;;;;;;;;;;;;;;;;;2200226;59;1940;-18
2023/07/14 05:44:50;;;;;;;;;;;;;;;;;;2200635;67;1633;-18
2023/07/14 05:47:23;;;;;;;;;;;;;;;;;;2199547;59;2072;-18
2023/07/14 05:49:54;;;;;;;;;;;;;;;;;;2201106;59;1275;-18
2023/07/14 05:52:24;;;;;;;;;;;;;;;;;;2201015;59;2064;-18
2023/07/14 05:54:54;;;;;;;;;;;;;;;;;;2200466;59;2302;-18
2023/07/14 05:57:25;;;;;;;;;;;;;;;;;;2198906;59;1324;-19
2023/07/14 05:59:55;;;;;;;;;;;;;;;;;;2195773;59;1457;-19
2023/07/14 06:02:25;;;;;;;;;;;;;;;;;;2200847;67;1997;-19
2023/07/14 06:05:00;;;;;;;;;;;;;;;;;;2200620;67;1760;-19
2023/07/14 06:07:31;;;;;;;;;;;;;;;;;;2200717;67;1346;-18
2023/07/14 06:10:01;;;;;;;;;;;;;;;;;;2200471;67;1590;-18
2023/07/14 06:12:32;;;;;;;;;;;;;;;;;;2200293;59;2153;-18
2023/07/14 06:15:03;;;;;;;;;;;;;;;;;;2196866;67;1735;-18
2023/07/14 06:17:34;;;;;;;;;;;;;;;;;;2197610;59;1539;-18
2023/07/14 06:20:04;;;;;;;;;;;;;;;;;;2201149;67;1661;-18
2023/07/14 06:22:34;;;;;;;;;;;;;;;;;;2201169;59;1951;-18
2023/07/14 06:25:05;;;;;;;;;;;;;;;;;;2200917;67;1783;-18
2023/07/14 06:27:35;;;;;;;;;;;;;;;;;;2201688;59;1642;-18
2023/07/14 06:30:06;;;;;;;;;;;;;;;;;;2200214;67;1709;-18
2023/07/14 06:32:38;;;;;;;;;;;;;;;;;;2197183;59;1694;-18
2023/07/14 06:35:10;;;;;;;;;;;;;;;;;;2197270;59;1657;-18
2023/07/14 06:37:41;;;;;;;;;;;;;;;;;;2201077;67;1266;-18
2023/07/14 06:40:14;;;;;;;;;;;;;;;;;;2200489;67;1811;-18
2023/07/14 06:42:44;;;;;;;;;;;;;;;;;;2201437;67;1939;-18
2023/07/14 06:45:15;;;;;;;;;;;;;;;;;;2200317;67;1711;-18
2023/07/14 06:47:45;;;;;;;;;;;;;;;;;;2198145;59;1666;-18
2023/07/14 06:50:18;;;;;;;;;;;;;;;;;;2200687;59;1812;-18
2023/07/14 06:52:51;;;;;;;;;;;;;;;;;;2200488;59;2116;-18
2023/07/14 06:55:21;;;;;;;;;;;;;;;;;;2199835;59;2149;-18
2023/07/14 06:57:52;;;;;;;;;;;;;;;;;;2200054;59;2236;-18
2023/07/14 07:00:22;;;;;;;;;;;;;;;;;;2200200;59;2137;-18
2023/07/14 07:02:52;;;;;;;;;;;;;;;;;;2200772;67;1988;-18
2023/07/14 07:05:23;;;;;;;;;;;;;;;;;;2200169;59;1812;-18
2023/07/14 07:07:53;;;;;;;;;;;;;;;;;;2200636;67;1637;-18
2023/07/14 07:10:23;;;;;;;;;;;;;;;;;;2199776;59;1295;-18
2023/07/14 07:12:54;;;;;;;;;;;;;;;;;;2201000;59;2010;-18
2023/07/14 07:15:27;;;;;;;;;;;;;;;;;;2200941;67;2164;-18
2023/07/14 07:17:57;;;;;;;;;;;;;;;;;;2196528;67;1599;-18
2023/07/14 07:20:27;;;;;;;;;;;;;;;;;;2200118;67;1722;-18
2023/07/14 07:22:58;;;;;;;;;;;;;;;;;;2200134;59;2012;-18
2023/07/14 07:25:28;;;;;;;;;;;;;;;;;;2199983;59;1379;-18
2023/07/14 07:27:58;;;;;;;;;;;;;;;;;;2200089;59;1465;-19
2023/07/14 07:30:31;;;;;;;;;;;;;;;;;;2199655;59;1733;-18
2023/07/14 07:33:01;;;;;;;;;;;;;;;;;;2199753;67;1366;-18
2023/07/14 07:35:32;;;;;;;;;;;;;;;;;;2200241;59;2012;-18
2023/07/14 07:38:02;;;;;;;;;;;;;;;;;;2199443;67;1694;-18
2023/07/14 07:40:33;;;;;;;;;;;;;;;;;;2200187;67;1157;-18
2023/07/14 07:43:03;;;;;;;;;;;;;;;;;;2195663;59;2078;-18
2023/07/14 07:45:33;;;;;;;;;;;;;;;;;;2199639;59;2088;-18
2023/07/14 07:48:04;;;;;;;;;;;;;;;;;;2199551;67;2190;-19
2023/07/14 07:50:35;;;;;;;;;;;;;;;;;;2195994;67;2034;-18
2023/07/14 07:53:05;;;;;;;;;;;;;;;;;;2200174;59;2056;-19
2023/07/14 07:55:35;;;;;;;;;;;;;;;;;;2200013;59;1978;-18
2023/07/14 07:58:06;;;;;;;;;;;;;;;;;;2198800;67;1763;-19
2023/07/14 08:00:41;;;;;;;;;;;;;;;;;;2195969;59;1345;-19
2023/07/14 08:03:11;;;;;;;;;;;;;;;;;;2199221;67;1936;-19
2023/07/14 08:05:42;;;;;;;;;;;;;;;;;;2196381;59;1651;-19
2023/07/14 08:08:12;;;;;;;;;;;;;;;;;;2198939;67;1127;-19
2023/07/14 08:10:43;;;;;;;;;;;;;;;;;;2200199;67;1221;-19
2023/07/14 08:13:14;;;;;;;;;;;;;;;;;;2199269;59;2048;-19
2023/07/14 08:15:44;;;;;;;;;;;;;;;;;;2196535;67;1653;-19
2023/07/14 08:18:14;;;;;;;;;;;;;;;;;;2199466;67;2191;-19
2023/07/14 08:20:46;;;;;;;;;;;;;;;;;;2193353;67;1325;-19
2023/07/14 08:23:18;;;;;;;;;;;;;;;;;;2199302;67;1972;-19
2023/07/14 08:25:52;;;;;;;;;;;;;;;;;;2199219;59;1775;-19
2023/07/14 08:28:22;;;;;;;;;;;;;;;;;;2199151;67;1995;-19
2023/07/14 08:30:55;;;;;;;;;;;;;;;;;;2199503;67;1662;-19
2023/07/14 08:33:26;;;;;;;;;;;;;;;;;;2199339;67;1405;-19
2023/07/14 08:36:00;;;;;;;;;;;;;;;;;;2198993;59;1687;-19
2023/07/14 08:38:31;;;;;;;;;;;;;;;;;;2199146;67;1693;-19
2023/07/14 08:41:20;;;;;;;;;;;;;;;;;;2198988;67;1709;-19
2023/07/14 08:43:53;;;;;;;;;;;;;;;;;;2199454;67;1298;-19
2023/07/14 08:46:33;;;;;;;;;;;;;;;;;;2199309;67;1951;-19
2023/07/14 08:49:05;;;;;;;;;;;;;;;;;;2200313;67;1466;-19
2023/07/14 08:51:40;;;;;;;;;;;;;;;;;;2200044;59;1576;-19
2023/07/14 08:54:16;;;;;;;;;;;;;;;;;;2198145;54;2669;-23
2023/07/14 08:56:52;;;;;;;;;;;;;;;;;;2197822;59;1654;-24
2023/07/14 08:59:38;;;;;;;;;;;;;;;;;;2197731;67;2072;-24
2023/07/14 09:02:32;;;;;;;;;;;;;;;;;;2198667;67;1994;-22
2023/07/14 09:05:04;;;;;;;;;;;;;;;;;;2191388;67;2408;-22
2023/07/14 09:07:35;;;;;;;;;;;;;;;;;;2196055;67;1935;-22
2023/07/14 09:10:08;;;;;;;;;;;;;;;;;;2198100;67;1842;-22
2023/07/14 09:12:53;;;;;;;;;;;;;;;;;;2199568;59;1853;-22
2023/07/14 09:15:25;;;;;;;;;;;;;;;;;;2198221;67;2071;-22
2023/07/14 09:18:04;;;;;;;;;;;;;;;;;;2199177;67;1776;-22
2023/07/14 09:20:44;;;;;;;;;;;;;;;;;;2199714;59;2215;-23
2023/07/14 09:23:14;;;;;;;;;;;;;;;;;;2198710;67;2299;-23
2023/07/14 09:26:03;;;;;;;;;;;;;;;;;;2197452;59;1478;-24
2023/07/14 09:28:43;;;;;;;;;;;;;;;;;;2197922;59;3609;-22
2023/07/14 09:31:32;;;;;;;;;;;;;;;;;;2195572;67;2431;-23
2023/07/14 09:34:04;;;;;;;;;;;;;;;;;;2198835;67;1780;-23
2023/07/14 09:36:54;;;;;;;;;;;;;;;;;;2194415;67;2468;-23
2023/07/14 09:39:30;;;;;;;;;;;;;;;;;;2197736;67;3473;-22
2023/07/14 09:42:02;;;;;;;;;;;;;;;;;;2196858;67;2166;-24
2023/07/14 09:44:33;;;;;;;;;;;;;;;;;;2198257;67;2364;-23
2023/07/14 09:47:05;;;;;;;;;;;;;;;;;;2198871;67;1470;-24
2023/07/14 09:49:39;;;;;;;;;;;;;;;;;;2198592;59;2945;-23
2023/07/14 09:52:14;;;;;;;;;;;;;;;;;;2198649;59;2043;-22
2023/07/14 09:54:52;;;;;;;;;;;;;;;;;;2199150;59;1735;-24
2023/07/14 09:57:43;;;;;;;;;;;;;;;;;;2197267;59;2156;-22
2023/07/14 10:00:24;;;;;;;;;;;;;;;;;;2197643;59;3078;-22
2023/07/14 10:03:18;;;;;;;;;;;;;;;;;;2197554;59;2033;-22
2023/07/14 10:05:51;;;;;;;;;;;;;;;;;;2197857;59;1699;-22
2023/07/14 10:08:29;;;;;;;;;;;;;;;;;;2197384;67;1961;-22
2023/07/14 10:11:11;;;;;;;;;;;;;;;;;;2197427;67;2349;-22
2023/07/14 10:13:44;;;;;;;;;;;;;;;;;;2198291;67;2387;-22
2023/07/14 10:16:16;;;;;;;;;;;;;;;;;;2198955;67;1703;-22
2023/07/14 10:18:48;;;;;;;;;;;;;;;;;;2199451;59;1936;-22
2023/07/14 10:21:26;;;;;;;;;;;;;;;;;;2199119;67;2760;-22
2023/07/14 10:23:58;;;;;;;;;;;;;;;;;;2198759;67;1799;-22
2023/07/14 10:26:34;;;;;;;;;;;;;;;;;;2197325;59;2012;-22
2023/07/14 10:29:13;;;;;;;;;;;;;;;;;;2199051;67;2782;-22
2023/07/14 10:31:47;;;;;;;;;;;;;;;;;;2198399;59;2313;-22
2023/07/14 10:34:46;;;;;;;;;;;;;;;;;;2196170;59;2701;-22
2023/07/14 10:37:21;;;;;;;;;;;;;;;;;;2197330;66;2078;-22
2023/07/14 10:39:59;;;;;;;;;;;;;;;;;;2194951;67;1963;-22
2023/07/14 10:42:32;;;;;;;;;;;;;;;;;;2198937;64;1942;-22
2023/07/14 10:45:03;;;;;;;;;;;;;;;;;;2197983;67;1818;-22
2023/07/14 10:47:50;;;;;;;;;;;;;;;;;;2197916;59;3381;-22
2023/07/14 10:50:24;;;;;;;;;;;;;;;;;;2197645;59;2526;-22
2023/07/14 10:53:05;;;;;;;;;;;;;;;;;;2197909;59;2566;-22
2023/07/14 10:55:37;;;;;;;;;;;;;;;;;;2197340;59;2164;-22
2023/07/14 10:58:19;;;;;;;;;;;;;;;;;;2197885;67;2222;-22
2023/07/14 11:00:54;;;;;;;;;;;;;;;;;;2198147;59;1795;-22
2023/07/14 11:03:24;;;;;;;;;;;;;;;;;;2197174;59;1955;-22
2023/07/14 11:05:58;;;;;;;;;;;;;;;;;;2196845;67;1814;-22
2023/07/14 11:08:29;;;;;;;;;;;;;;;;;;2198081;67;2262;-22
2023/07/14 11:11:16;;;;;;;;;;;;;;;;;;2198226;67;1760;-22
2023/07/14 11:14:13;;;;;;;;;;;;;;;;;;2198359;59;1795;-22
2023/07/14 11:16:55;;;;;;;;;;;;;;;;;;2197780;67;1955;-22
2023/07/14 11:19:25;;;;;;;;;;;;;;;;;;2197632;67;1676;-22
2023/07/14 11:22:03;;;;;;;;;;;;;;;;;;2198252;67;3488;-22
2023/07/14 11:24:37;;;;;;;;;;;;;;;;;;2197746;67;1644;-22
2023/07/14 11:27:29;;;;;;;;;;;;;;;;;;2197917;59;1943;-22
2023/07/14 11:30:18;;;;;;;;;;;;;;;;;;2196154;67;2802;-22
2023/07/14 11:32:51;;;;;;;;;;;;;;;;;;2198807;67;2377;-22
2023/07/14 11:35:33;;;;;;;;;;;;;;;;;;2198518;59;2097;-22
2023/07/14 11:38:15;;;;;;;;;;;;;;;;;;2198210;67;1979;-22
2023/07/14 11:40:46;;;;;;;;;;;;;;;;;;2198356;59;3592;-22
2023/07/14 11:43:28;;;;;;;;;;;;;;;;;;2194336;59;2253;-22
2023/07/14 11:46:02;;;;;;;;;;;;;;;;;;2198184;67;1956;-22
2023/07/14 11:48:37;;;;;;;;;;;;;;;;;;2197683;59;2056;-22
2023/07/14 11:51:13;;;;;;;;;;;;;;;;;;2194133;59;2696;-22
2023/07/14 11:54:02;;;;;;;;;;;;;;;;;;2197031;59;2247;-22
2023/07/14 11:56:38;;;;;;;;;;;;;;;;;;2196677;59;2285;-22
2023/07/14 11:59:22;;;;;;;;;;;;;;;;;;2196234;59;2227;-22
2023/07/14 12:01:54;;;;;;;;;;;;;;;;;;2199622;59;2198;-22
2023/07/14 12:04:32;;;;;;;;;;;;;;;;;;2196731;59;2243;-33
2023/07/14 12:07:19;;;;;;;;;;;;;;;;;;2195651;59;2236;-22
2023/07/14 12:10:00;;;;;;;;;;;;;;;;;;2198863;59;1988;-22
2023/07/14 12:12:32;;;;;;;;;;;;;;;;;;2196833;59;2807;-22
2023/07/14 12:15:22;;;;;;;;;;;;;;;;;;2198126;59;2634;-22
2023/07/14 12:17:52;;;;;;;;;;;;;;;;;;2194393;59;2815;-22
2023/07/14 12:20:23;;;;;;;;;;;;;;;;;;2194486;67;1817;-22
2023/07/14 12:23:31;;;;;;;;;;;;;;;;;;2194725;67;2921;-22
2023/07/14 12:26:12;;;;;;;;;;;;;;;;;;2183401;59;2722;-22
2023/07/14 12:28:42;;;;;;;;;;;;;;;;;;2189747;67;1855;-22
2023/07/14 12:31:16;;;;;;;;;;;;;;;;;;2191739;59;2265;-22
2023/07/14 12:33:47;;;;;;;;;;;;;;;;;;2198541;59;2382;-22
2023/07/14 12:36:19;;;;;;;;;;;;;;;;;;2197576;59;2633;-22
2023/07/14 12:38:51;;;;;;;;;;;;;;;;;;2199325;67;2684;-22
2023/07/14 12:41:23;;;;;;;;;;;;;;;;;;2195574;67;2266;-22
2023/07/14 12:43:55;;;;;;;;;;;;;;;;;;2195857;59;1943;-22
2023/07/14 12:46:52;;;;;;;;;;;;;;;;;;2198371;59;3028;-22
2023/07/14 12:49:30;;;;;;;;;;;;;;;;;;2196475;59;2426;-21
2023/07/14 12:52:04;;;;;;;;;;;;;;;;;;2198323;59;2078;-22
2023/07/14 12:54:35;;;;;;;;;;;;;;;;;;2195160;59;2130;-22
2023/07/14 12:57:05;;;;;;;;;;;;;;;;;;2195051;59;2201;-24
2023/07/14 13:05:54;;;;;;;;;;;;;;;;;;2190398;59;2414;-22
2023/07/14 13:08:27;;;;;;;;;;;;;;;;;;2197578;59;2436;-22
2023/07/14 13:10:58;;;;;;;;;;;;;;;;;;2195628;59;2220;-22
2023/07/14 13:13:37;;;;;;;;;;;;;;;;;;2196638;59;2135;-24
2023/07/14 13:16:11;;;;;;;;;;;;;;;;;;2197559;67;1926;-22
2023/07/14 13:18:52;;;;;;;;;;;;;;;;;;2198653;59;1733;-22
2023/07/14 13:21:42;;;;;;;;;;;;;;;;;;2198905;59;2334;-22
2023/07/14 13:24:21;;;;;;;;;;;;;;;;;;2196993;63;2021;-22
2023/07/14 13:26:51;;;;;;;;;;;;;;;;;;2198947;59;2101;-22
2023/07/14 13:29:23;;;;;;;;;;;;;;;;;;2197778;59;2449;-22
2023/07/14 13:31:56;;;;;;;;;;;;;;;;;;2195810;59;2793;-22
2023/07/14 13:34:31;;;;;;;;;;;;;;;;;;2198595;59;3051;-22
2023/07/14 13:37:03;;;;;;;;;;;;;;;;;;2198066;59;2593;-22
2023/07/14 13:39:37;;;;;;;;;;;;;;;;;;2195920;60;2590;-22
2023/07/14 13:42:26;;;;;;;;;;;;;;;;;;2198201;59;2385;-22
2023/07/14 13:44:58;;;;;;;;;;;;;;;;;;2196886;67;1843;-22
2023/07/14 13:47:38;;;;;;;;;;;;;;;;;;2197489;59;2280;-22
2023/07/14 13:50:08;;;;;;;;;;;;;;;;;;2194227;67;2031;-22
2023/07/14 13:52:38;;;;;;;;;;;;;;;;;;2197800;59;2420;-22
2023/07/14 13:55:12;;;;;;;;;;;;;;;;;;2191384;59;2328;-22
2023/07/14 13:57:42;;;;;;;;;;;;;;;;;;2197161;67;1954;-22
2023/07/14 14:00:14;;;;;;;;;;;;;;;;;;2194285;59;1797;-24
2023/07/14 14:02:51;;;;;;;;;;;;;;;;;;2197164;67;1992;-24
2023/07/14 14:05:22;;;;;;;;;;;;;;;;;;2197306;59;1501;-22
2023/07/14 14:07:53;;;;;;;;;;;;;;;;;;2198458;67;1870;-22
2023/07/14 14:10:27;;;;;;;;;;;;;;;;;;2191187;67;2207;-22
2023/07/14 14:12:59;;;;;;;;;;;;;;;;;;2197961;59;3061;-22
2023/07/14 14:15:31;;;;;;;;;;;;;;;;;;2198147;67;1875;-22
2023/07/14 14:18:05;;;;;;;;;;;;;;;;;;2193841;59;2060;-24
2023/07/14 14:20:36;;;;;;;;;;;;;;;;;;2197495;59;1484;-22
2023/07/14 14:23:06;;;;;;;;;;;;;;;;;;2194454;67;1948;-22
2023/07/14 14:25:36;;;;;;;;;;;;;;;;;;2197795;59;1784;-22
2023/07/14 14:28:07;;;;;;;;;;;;;;;;;;2198144;59;2495;-22
2023/07/14 14:30:42;;;;;;;;;;;;;;;;;;2197759;67;1956;-22
2023/07/14 14:33:14;;;;;;;;;;;;;;;;;;2197566;67;1896;-22
2023/07/14 14:35:44;;;;;;;;;;;;;;;;;;2194992;59;2483;-22
2023/07/14 14:38:19;;;;;;;;;;;;;;;;;;2197794;59;2459;-22
2023/07/14 14:40:49;;;;;;;;;;;;;;;;;;2198743;67;1625;-22
2023/07/14 14:43:24;;;;;;;;;;;;;;;;;;2198317;67;1935;-22
2023/07/14 14:45:56;;;;;;;;;;;;;;;;;;2198619;67;1798;-22
2023/07/14 14:48:31;;;;;;;;;;;;;;;;;;2198669;67;1968;-22
2023/07/14 14:51:01;;;;;;;;;;;;;;;;;;2197799;59;1779;-22
2023/07/14 14:53:34;;;;;;;;;;;;;;;;;;2197980;59;2855;-22
2023/07/14 14:56:05;;;;;;;;;;;;;;;;;;2197516;59;2227;-22
2023/07/14 14:58:39;;;;;;;;;;;;;;;;;;2198644;67;1732;-22
2023/07/14 15:01:17;;;;;;;;;;;;;;;;;;2196940;59;2410;-22
2023/07/14 15:03:48;;;;;;;;;;;;;;;;;;2197805;59;2014;-24
2023/07/14 15:06:19;;;;;;;;;;;;;;;;;;2192615;67;1592;-24
2023/07/14 15:08:49;;;;;;;;;;;;;;;;;;2198121;67;2107;-24
2023/07/14 15:11:20;;;;;;;;;;;;;;;;;;2194051;59;2363;-22
2023/07/14 15:13:50;;;;;;;;;;;;;;;;;;2195961;59;1972;-22
2023/07/14 15:16:21;;;;;;;;;;;;;;;;;;2194439;67;2075;-22
2023/07/14 15:18:51;;;;;;;;;;;;;;;;;;2195032;67;2242;-22
2023/07/14 15:21:21;;;;;;;;;;;;;;;;;;2196846;59;2275;-22
2023/07/14 15:23:51;;;;;;;;;;;;;;;;;;2194792;67;2826;-22
2023/07/14 15:26:23;;;;;;;;;;;;;;;;;;2196853;59;2154;-22
2023/07/14 15:28:54;;;;;;;;;;;;;;;;;;2197363;67;1874;-22
2023/07/14 15:31:24;;;;;;;;;;;;;;;;;;2197986;59;2890;-22
2023/07/14 15:33:54;;;;;;;;;;;;;;;;;;2198337;67;1956;-22
2023/07/14 15:36:26;;;;;;;;;;;;;;;;;;2196665;59;2105;-23
2023/07/14 15:38:56;;;;;;;;;;;;;;;;;;2195435;59;2077;-22
2023/07/14 15:41:26;;;;;;;;;;;;;;;;;;2195240;59;2148;-23
2023/07/14 15:43:57;;;;;;;;;;;;;;;;;;2196810;59;2012;-23
2023/07/14 15:46:27;;;;;;;;;;;;;;;;;;2195788;59;2702;-23
2023/07/14 15:48:57;;;;;;;;;;;;;;;;;;2195638;67;2530;-23
2023/07/14 15:51:30;;;;;;;;;;;;;;;;;;2195701;59;2603;-23
2023/07/14 15:54:03;;;;;;;;;;;;;;;;;;2196529;59;3004;-23
2023/07/14 15:56:35;;;;;;;;;;;;;;;;;;2196871;59;3206;-23
2023/07/14 15:59:08;;;;;;;;;;;;;;;;;;2197607;67;2613;-22
2023/07/14 16:01:39;;;;;;;;;;;;;;;;;;2199381;59;2395;-23
2023/07/14 16:04:09;;;;;;;;;;;;;;;;;;2197718;59;1904;-23
2023/07/14 16:06:40;;;;;;;;;;;;;;;;;;2199103;67;2650;-23
2023/07/14 16:09:15;;;;;;;;;;;;;;;;;;2198368;67;2618;-23
2023/07/14 16:11:47;;;;;;;;;;;;;;;;;;2195350;59;2256;-23
2023/07/14 16:14:17;;;;;;;;;;;;;;;;;;2198259;67;1863;-23
2023/07/14 16:16:47;;;;;;;;;;;;;;;;;;2199050;67;2165;-22
2023/07/14 16:19:18;;;;;;;;;;;;;;;;;;2197974;67;2070;-22
2023/07/14 16:21:50;;;;;;;;;;;;;;;;;;2196144;59;3915;-22
2023/07/14 16:24:22;;;;;;;;;;;;;;;;;;2196798;59;2755;-22
2023/07/14 16:26:53;;;;;;;;;;;;;;;;;;2198255;59;2043;-22
2023/07/14 16:29:23;;;;;;;;;;;;;;;;;;2197423;59;2539;-22
2023/07/14 16:31:53;;;;;;;;;;;;;;;;;;2198119;67;2101;-22
2023/07/14 16:34:24;;;;;;;;;;;;;;;;;;2195521;59;2039;-22
2023/07/14 16:36:57;;;;;;;;;;;;;;;;;;2198679;67;2127;-22
2023/07/14 16:39:28;;;;;;;;;;;;;;;;;;2198104;67;1849;-22
2023/07/14 16:41:58;;;;;;;;;;;;;;;;;;2196501;67;2563;-23
2023/07/14 16:44:28;;;;;;;;;;;;;;;;;;2197976;67;2516;-22
2023/07/14 16:47:02;;;;;;;;;;;;;;;;;;2198292;67;2138;-22
2023/07/14 16:49:32;;;;;;;;;;;;;;;;;;2199122;59;2261;-22
2023/07/14 16:52:09;;;;;;;;;;;;;;;;;;2199127;59;2323;-22
2023/07/14 16:54:40;;;;;;;;;;;;;;;;;;2194797;59;2637;-22
2023/07/14 16:57:22;;;;;;;;;;;;;;;;;;2197838;59;2670;-22
2023/07/14 16:59:53;;;;;;;;;;;;;;;;;;2198378;59;1861;-22
2023/07/14 17:02:24;;;;;;;;;;;;;;;;;;2193505;67;2681;-23
2023/07/14 17:04:55;;;;;;;;;;;;;;;;;;2197191;59;2203;-23
2023/07/14 17:07:25;;;;;;;;;;;;;;;;;;2197981;67;2047;-23
2023/07/14 17:09:55;;;;;;;;;;;;;;;;;;2195470;67;1896;-23
2023/07/14 17:12:26;;;;;;;;;;;;;;;;;;2197890;59;2302;-23
2023/07/14 17:14:57;;;;;;;;;;;;;;;;;;2198070;67;3359;-23
2023/07/14 17:17:27;;;;;;;;;;;;;;;;;;2197052;60;2576;-23
2023/07/14 17:19:58;;;;;;;;;;;;;;;;;;2198068;67;1775;-22
2023/07/14 17:22:34;;;;;;;;;;;;;;;;;;2198700;67;2057;-23
2023/07/14 17:25:06;;;;;;;;;;;;;;;;;;2197315;67;1962;-23
2023/07/14 17:27:37;;;;;;;;;;;;;;;;;;2198162;59;2256;-23
2023/07/14 17:30:12;;;;;;;;;;;;;;;;;;2198453;67;1544;-22
2023/07/14 17:32:42;;;;;;;;;;;;;;;;;;2197806;67;1837;-23
2023/07/14 17:35:12;;;;;;;;;;;;;;;;;;2199188;67;1904;-23
2023/07/14 17:37:43;;;;;;;;;;;;;;;;;;2199098;67;1754;-23
2023/07/14 17:40:17;;;;;;;;;;;;;;;;;;2197973;67;2504;-23
2023/07/14 17:42:47;;;;;;;;;;;;;;;;;;2195044;67;1933;-23
2023/07/14 17:45:19;;;;;;;;;;;;;;;;;;2196947;67;1773;-22
2023/07/14 17:47:49;;;;;;;;;;;;;;;;;;2199182;67;1847;-22
2023/07/14 17:50:21;;;;;;;;;;;;;;;;;;2196723;59;2589;-32